Time;durP1;ratioP1;P1;durP2;ratioP2;P2;SDS_P1;SDS_P2;PMS_P1;PMS_P2;Temp;Humidity;BMP_temperature;BMP_pressure;BME280_temperature;BME280_humidity;BME280_pressure;Samples;Min_cycle;Max_cycle;Signal;HPM_P1;HPM_P2
2022/01/31 00:00:33;;;;;;;21.40;5.43;;;;;;;-146.41;100.00;57768.22;4972409;28;20073;-67
2022/01/31 00:03:04;;;;;;;25.00;6.43;;;;;;;-146.41;100.00;57768.22;4970751;28;20441;-67
2022/01/31 00:05:34;;;;;;;18.83;5.90;;;;;;;-146.41;100.00;57768.22;4969560;28;20042;-67
2022/01/31 00:08:05;;;;;;;26.98;6.65;;;;;;;-146.41;100.00;57768.22;4967170;28;20059;-67
2022/01/31 00:10:36;;;;;;;21.27;5.75;;;;;;;-146.41;100.00;57768.22;4972175;28;20114;-67
2022/01/31 00:13:17;;;;;;;27.90;6.32;;;;;;;-146.41;100.00;57768.22;4970483;28;20046;-67
2022/01/31 00:15:53;;;;;;;26.33;7.07;;;;;;;-146.41;100.00;57768.22;4971320;28;20082;-66
2022/01/31 00:18:24;;;;;;;25.42;6.68;;;;;;;-146.41;100.00;57768.22;4968767;28;20125;-66
2022/01/31 00:20:55;;;;;;;20.25;5.50;;;;;;;-146.41;100.00;57768.22;4967885;28;20054;-65
2022/01/31 00:23:25;;;;;;;28.25;6.70;;;;;;;-146.41;100.00;57768.22;4968121;28;20145;-66
2022/01/31 00:25:55;;;;;;;18.40;5.95;;;;;;;-146.41;100.00;57768.22;4969734;28;20047;-67
2022/01/31 00:28:24;;;;;;;20.75;6.00;;;;;;;-146.41;100.00;57768.22;4968922;28;20149;-66
2022/01/31 00:30:54;;;;;;;20.60;6.63;;;;;;;-146.41;100.00;57768.22;4968807;28;20054;-67
2022/01/31 00:33:24;;;;;;;21.40;5.78;;;;;;;-146.41;100.00;57768.22;4968320;28;20198;-67
2022/01/31 00:35:54;;;;;;;20.38;4.88;;;;;;;-146.41;100.00;57768.22;4970692;28;20054;-67
2022/01/31 00:38:24;;;;;;;18.45;5.57;;;;;;;-146.41;100.00;57768.22;4969369;28;20467;-66
2022/01/31 00:40:53;;;;;;;23.10;5.40;;;;;;;-146.41;100.00;57768.22;4967216;28;20130;-66
2022/01/31 00:43:23;;;;;;;20.17;5.63;;;;;;;-146.41;100.00;57768.22;4968071;28;20582;-66
2022/01/31 00:46:08;;;;;;;19.15;5.20;;;;;;;-146.41;100.00;57768.22;4969643;28;20426;-67
2022/01/31 00:48:44;;;;;;;27.52;5.10;;;;;;;-146.41;100.00;57768.22;4967191;28;20062;-68
2022/01/31 00:51:13;;;;;;;22.58;5.60;;;;;;;-146.41;100.00;57768.22;4969564;28;20134;-64
2022/01/31 00:53:43;;;;;;;19.50;5.50;;;;;;;-146.41;100.00;57768.22;4973032;28;20145;-68
2022/01/31 00:56:11;;;;;;;21.27;4.35;;;;;;;-146.41;100.00;57768.22;4971676;28;20154;-66
2022/01/31 00:58:41;;;;;;;21.92;4.80;;;;;;;-146.41;100.00;57768.22;4970489;28;20050;-67
2022/01/31 01:01:09;;;;;;;25.77;5.20;;;;;;;-146.41;100.00;57768.22;4971101;28;20599;-67
2022/01/31 01:03:40;;;;;;;22.20;5.30;;;;;;;-146.41;100.00;57768.22;4968554;28;20050;-66
2022/01/31 01:06:08;;;;;;;18.95;4.45;;;;;;;-146.41;100.00;57768.22;4968970;28;20137;-68
2022/01/31 01:08:38;;;;;;;23.48;4.45;;;;;;;-146.41;100.00;57768.22;4968981;28;20070;-67
2022/01/31 01:11:09;;;;;;;17.20;4.95;;;;;;;-146.41;100.00;57768.22;4970754;28;20082;-68
2022/01/31 01:13:37;;;;;;;21.65;5.18;;;;;;;-146.41;100.00;57768.22;4969524;28;20133;-67
2022/01/31 01:16:05;;;;;;;19.58;5.32;;;;;;;-146.41;100.00;57768.22;4969561;28;20068;-66
2022/01/31 01:18:36;;;;;;;19.98;5.03;;;;;;;-146.41;100.00;57768.22;4968217;28;20058;-66
2022/01/31 01:21:06;;;;;;;18.77;5.10;;;;;;;-146.41;100.00;57768.22;4952260;28;21678;-66
2022/01/31 01:23:37;;;;;;;21.92;5.28;;;;;;;-146.41;100.00;57768.22;4969239;28;20051;-67
2022/01/31 01:26:08;;;;;;;20.35;5.65;;;;;;;-146.41;100.00;57768.22;4970280;28;20137;-66
2022/01/31 01:28:38;;;;;;;15.82;4.90;;;;;;;-146.41;100.00;57768.22;4967957;28;20521;-65
2022/01/31 01:31:09;;;;;;;18.48;5.00;;;;;;;-146.41;100.00;57768.22;4970184;28;20078;-65
2022/01/31 01:33:41;;;;;;;21.92;5.40;;;;;;;-146.41;100.00;57768.22;4967457;28;20050;-65
2022/01/31 01:36:12;;;;;;;19.13;4.78;;;;;;;-146.41;100.00;57768.22;4970655;28;20050;-67
2022/01/31 01:38:42;;;;;;;24.45;4.85;;;;;;;-146.41;100.00;57768.22;4969167;28;21740;-66
2022/01/31 01:41:12;;;;;;;22.23;4.53;;;;;;;-146.41;100.00;57768.22;4969472;28;20435;-65
2022/01/31 01:43:41;;;;;;;16.27;4.80;;;;;;;-146.41;100.00;57768.22;4967446;28;20066;-66
2022/01/31 01:46:12;;;;;;;28.85;5.43;;;;;;;-146.41;100.00;57768.22;4968365;28;20047;-66
2022/01/31 01:48:40;;;;;;;24.63;4.90;;;;;;;-146.41;100.00;57768.22;4969430;28;20043;-66
2022/01/31 01:51:10;;;;;;;13.50;4.10;;;;;;;-146.41;100.00;57768.22;4968207;28;20472;-65
2022/01/31 01:53:39;;;;;;;21.35;3.90;;;;;;;-146.41;100.00;57768.22;4967850;28;20053;-65
2022/01/31 01:56:09;;;;;;;22.80;4.50;;;;;;;-146.41;100.00;57768.22;4968298;28;20069;-66
2022/01/31 01:58:42;;;;;;;21.50;4.50;;;;;;;-146.41;100.00;57768.22;4969112;28;20543;-67
2022/01/31 02:01:14;;;;;;;22.55;5.30;;;;;;;-146.41;100.00;57768.22;4967207;28;20066;-67
2022/01/31 02:03:44;;;;;;;16.85;5.32;;;;;;;-146.41;100.00;57768.22;4965888;28;20051;-66
2022/01/31 02:06:14;;;;;;;25.65;4.85;;;;;;;-146.41;100.00;57768.22;4969121;28;20134;-66
2022/01/31 02:08:46;;;;;;;14.75;4.18;;;;;;;-146.41;100.00;57768.22;4968096;28;20043;-65
2022/01/31 02:11:16;;;;;;;20.20;4.28;;;;;;;-146.41;100.00;57768.22;4967895;28;20051;-66
2022/01/31 02:13:46;;;;;;;16.20;5.07;;;;;;;-146.41;100.00;57768.22;4965931;28;20141;-66
2022/01/31 02:16:17;;;;;;;17.35;4.30;;;;;;;-146.41;100.00;57768.22;4966643;28;20426;-66
2022/01/31 02:18:52;;;;;;;20.17;4.65;;;;;;;-146.41;100.00;57768.22;4967091;28;20434;-65
2022/01/31 02:21:21;;;;;;;30.02;5.82;;;;;;;-146.41;100.00;57768.22;4968667;28;20057;-66
2022/01/31 02:23:49;;;;;;;17.77;5.15;;;;;;;-146.41;100.00;57768.22;4967554;28;20051;-66
2022/01/31 02:26:19;;;;;;;25.38;5.32;;;;;;;-146.41;100.00;57768.22;4964744;28;20460;-66
2022/01/31 02:28:50;;;;;;;17.67;5.57;;;;;;;-146.41;100.00;57768.22;4968953;28;20055;-66
2022/01/31 02:31:20;;;;;;;21.13;4.85;;;;;;;-146.41;100.00;57768.22;4949589;28;20107;-66
2022/01/31 02:33:51;;;;;;;17.58;4.85;;;;;;;-146.41;100.00;57768.22;4966329;28;20134;-66
2022/01/31 02:36:22;;;;;;;21.73;5.13;;;;;;;-146.41;100.00;57768.22;4967907;28;20137;-65
2022/01/31 02:38:52;;;;;;;16.65;5.45;;;;;;;-146.41;100.00;57768.22;4951760;28;20137;-67
2022/01/31 02:41:23;;;;;;;17.52;5.03;;;;;;;-146.41;100.00;57768.22;4968179;28;20051;-67
2022/01/31 02:43:54;;;;;;;23.38;5.88;;;;;;;-146.41;100.00;57768.22;4966872;28;20082;-66
2022/01/31 02:46:27;;;;;;;18.02;5.40;;;;;;;-146.41;100.00;57768.22;4967836;28;20141;-65
2022/01/31 02:48:57;;;;;;;22.17;5.03;;;;;;;-146.41;100.00;57768.22;4968412;28;20241;-66
2022/01/31 02:51:31;;;;;;;24.05;6.05;;;;;;;-146.41;100.00;57768.22;4968503;28;20054;-67
2022/01/31 02:53:59;;;;;;;23.55;6.40;;;;;;;-146.41;100.00;57768.22;4968064;28;20090;-66
2022/01/31 02:56:28;;;;;;;25.33;6.40;;;;;;;-146.41;100.00;57768.22;4968482;28;20135;-66
2022/01/31 02:58:56;;;;;;;19.95;5.25;;;;;;;-146.41;100.00;57768.22;4967549;28;20055;-66
2022/01/31 03:01:26;;;;;;;25.48;6.78;;;;;;;-146.41;100.00;57768.22;4967616;28;20452;-66
2022/01/31 03:03:57;;;;;;;20.90;6.35;;;;;;;-146.41;100.00;57768.22;4966953;28;20126;-68
2022/01/31 03:06:25;;;;;;;27.73;6.75;;;;;;;-146.41;100.00;57768.22;4965803;28;20525;-66
2022/01/31 03:08:53;;;;;;;24.67;6.18;;;;;;;-146.41;100.00;57768.22;4968306;28;20053;-66
2022/01/31 03:11:22;;;;;;;23.10;6.20;;;;;;;-146.41;100.00;57768.22;4966003;28;20055;-66
2022/01/31 03:13:50;;;;;;;25.17;7.07;;;;;;;-146.41;100.00;57768.22;4967594;28;20054;-66
2022/01/31 03:16:19;;;;;;;27.77;6.45;;;;;;;-146.41;100.00;57768.22;4966850;28;20043;-66
2022/01/31 03:18:47;;;;;;;19.10;6.18;;;;;;;-146.41;100.00;57768.22;4967101;28;20086;-65
2022/01/31 03:21:18;;;;;;;22.42;5.88;;;;;;;-146.41;100.00;57768.22;4968317;28;20110;-66
2022/01/31 03:23:49;;;;;;;21.40;5.97;;;;;;;-146.41;100.00;57768.22;4967089;28;20436;-66
2022/01/31 03:26:18;;;;;;;26.73;6.70;;;;;;;-146.41;100.00;57768.22;4965985;28;20086;-66
2022/01/31 03:28:49;;;;;;;17.40;5.78;;;;;;;-146.41;100.00;57768.22;4970544;28;20407;-67
2022/01/31 03:31:20;;;;;;;21.83;5.43;;;;;;;-146.41;100.00;57768.22;4972509;28;21417;-66
2022/01/31 03:33:50;;;;;;;32.67;5.75;;;;;;;-146.41;100.00;57768.22;4971615;28;20146;-67
2022/01/31 03:36:19;;;;;;;25.65;6.00;;;;;;;-146.41;100.00;57768.22;4970189;28;20457;-67
2022/01/31 03:38:48;;;;;;;24.88;5.70;;;;;;;-146.41;100.00;57768.22;4971602;28;20142;-65
2022/01/31 03:41:19;;;;;;;23.13;5.78;;;;;;;-146.41;100.00;57768.22;4969047;28;20109;-67
2022/01/31 03:43:48;;;;;;;22.05;5.80;;;;;;;-146.41;100.00;57768.22;4969638;28;20047;-66
2022/01/31 03:46:16;;;;;;;22.55;6.72;;;;;;;-146.41;100.00;57768.22;4971443;28;20057;-66
2022/01/31 03:48:46;;;;;;;22.13;6.25;;;;;;;-146.41;100.00;57768.22;4971635;28;20412;-66
2022/01/31 03:51:15;;;;;;;33.42;6.90;;;;;;;-146.41;100.00;57768.22;4973368;28;20193;-66
2022/01/31 03:53:43;;;;;;;21.20;5.25;;;;;;;-146.41;100.00;57768.22;4973951;28;20065;-67
2022/01/31 03:56:12;;;;;;;22.15;5.35;;;;;;;-146.41;100.00;57768.22;4971700;28;20078;-64
2022/01/31 03:58:40;;;;;;;25.08;5.40;;;;;;;-146.41;100.00;57768.22;4970414;28;20051;-66
2022/01/31 04:01:09;;;;;;;17.00;4.85;;;;;;;-146.41;100.00;57768.22;4969803;28;20054;-67
2022/01/31 04:03:38;;;;;;;18.58;4.90;;;;;;;-146.41;100.00;57768.22;4971165;28;20427;-66
2022/01/31 04:06:06;;;;;;;20.92;5.20;;;;;;;-146.41;100.00;57768.22;4970880;28;20054;-66
2022/01/31 04:08:35;;;;;;;29.40;5.90;;;;;;;-146.41;100.00;57768.22;4971087;28;20050;-66
2022/01/31 04:11:03;;;;;;;25.55;6.60;;;;;;;-146.41;100.00;57768.22;4970660;28;20518;-66
2022/01/31 04:13:31;;;;;;;29.83;5.68;;;;;;;-146.41;100.00;57768.22;4971187;28;20128;-65
2022/01/31 04:16:00;;;;;;;25.25;5.03;;;;;;;-146.41;100.00;57768.22;4969340;28;20051;-65
2022/01/31 04:18:29;;;;;;;24.27;5.38;;;;;;;-146.41;100.00;57768.22;4967364;28;20054;-66
2022/01/31 04:20:57;;;;;;;28.48;5.95;;;;;;;-146.41;100.00;57768.22;4970673;28;20047;-67
2022/01/31 04:23:28;;;;;;;23.45;5.32;;;;;;;-146.41;100.00;57768.22;4971267;28;20054;-66
2022/01/31 04:26:06;;;;;;;20.90;4.78;;;;;;;-146.41;100.00;57768.22;4969711;28;20065;-67
2022/01/31 04:28:47;;;;;;;19.08;3.85;;;;;;;-146.41;100.00;57768.22;4971113;28;20055;-66
2022/01/31 04:33:49;;;;;;;;;;;;;;;-146.41;100.00;57768.22;4970317;28;20054;-65
2022/01/31 04:36:18;;;;;;;18.17;4.68;;;;;;;-146.41;100.00;57768.22;4970498;28;20484;-66
2022/01/31 04:38:48;;;;;;;22.27;5.07;;;;;;;-146.41;100.00;57768.22;4968266;28;20158;-65
2022/01/31 04:41:17;;;;;;;24.23;6.47;;;;;;;-146.41;100.00;57768.22;4970302;28;20403;-66
2022/01/31 04:43:47;;;;;;;21.15;5.32;;;;;;;-146.41;100.00;57768.22;4971562;28;20125;-66
2022/01/31 04:46:16;;;;;;;21.55;4.75;;;;;;;-146.41;100.00;57768.22;4967798;28;20050;-66
2022/01/31 04:48:45;;;;;;;23.67;5.57;;;;;;;-146.41;100.00;57768.22;4970194;28;20058;-66
2022/01/31 04:51:15;;;;;;;20.83;4.10;;;;;;;-146.41;100.00;57768.22;4967555;28;20480;-65
2022/01/31 04:53:43;;;;;;;14.30;3.85;;;;;;;-146.41;100.00;57768.22;4972069;28;20089;-66
2022/01/31 04:56:12;;;;;;;20.08;4.63;;;;;;;-146.41;100.00;57768.22;4966490;28;20142;-66
2022/01/31 04:58:41;;;;;;;16.75;4.53;;;;;;;-146.41;100.00;57768.22;4970244;28;20046;-67
2022/01/31 05:01:09;;;;;;;29.98;5.32;;;;;;;-146.41;100.00;57768.22;4967468;28;20122;-65
2022/01/31 05:03:38;;;;;;;30.25;4.45;;;;;;;-146.41;100.00;57768.22;4970514;28;20042;-66
2022/01/31 05:06:08;;;;;;;23.67;6.05;;;;;;;-146.41;100.00;57768.22;4966457;28;20050;-67
2022/01/31 05:08:38;;;;;;;25.73;5.85;;;;;;;-146.41;100.00;57768.22;4968471;28;20499;-66
2022/01/31 05:11:08;;;;;;;16.67;4.90;;;;;;;-146.41;100.00;57768.22;4966222;28;20209;-67
2022/01/31 05:13:37;;;;;;;19.92;4.70;;;;;;;-146.41;100.00;57768.22;4971876;28;20130;-67
2022/01/31 05:16:06;;;;;;;25.98;6.38;;;;;;;-146.41;100.00;57768.22;4970282;28;20507;-66
2022/01/31 05:18:35;;;;;;;23.65;4.72;;;;;;;-146.41;100.00;57768.22;4969833;28;20119;-66
2022/01/31 05:21:05;;;;;;;22.55;4.68;;;;;;;-146.41;100.00;57768.22;4968958;28;20134;-68
2022/01/31 05:23:34;;;;;;;15.07;4.32;;;;;;;-146.41;100.00;57768.22;4949640;28;20061;-68
2022/01/31 05:26:03;;;;;;;27.52;5.45;;;;;;;-146.41;100.00;57768.22;4969015;28;20082;-68
2022/01/31 05:28:32;;;;;;;15.48;5.10;;;;;;;-146.41;100.00;57768.22;4968456;28;20046;-69
2022/01/31 05:31:00;;;;;;;12.27;4.18;;;;;;;-146.41;100.00;57768.22;4969157;28;20055;-68
2022/01/31 05:33:29;;;;;;;22.88;5.43;;;;;;;-146.41;100.00;57768.22;4969950;28;20174;-69
2022/01/31 05:35:58;;;;;;;21.92;5.00;;;;;;;-146.41;100.00;57768.22;4971038;28;20077;-67
2022/01/31 05:38:30;;;;;;;14.93;4.70;;;;;;;-146.41;100.00;57768.22;4967988;28;20051;-68
2022/01/31 05:41:04;;;;;;;18.40;4.70;;;;;;;-146.41;100.00;57768.22;4968187;28;20491;-66
2022/01/31 05:43:33;;;;;;;24.15;5.35;;;;;;;-146.41;100.00;57768.22;4968985;28;20070;-67
2022/01/31 05:46:04;;;;;;;19.30;5.20;;;;;;;-146.41;100.00;57768.22;4968364;28;20117;-66
2022/01/31 05:48:34;;;;;;;16.58;4.78;;;;;;;-146.41;100.00;57768.22;4946123;28;20100;-67
2022/01/31 05:51:15;;;;;;;11.45;4.00;;;;;;;-146.41;100.00;57768.22;4966951;28;20142;-66
2022/01/31 05:53:45;;;;;;;12.45;4.35;;;;;;;-146.41;100.00;57768.22;4969393;28;20125;-67
2022/01/31 05:56:14;;;;;;;10.73;3.38;;;;;;;-146.41;100.00;57768.22;4968125;28;20054;-67
2022/01/31 05:58:45;;;;;;;14.55;4.18;;;;;;;-146.41;100.00;57768.22;4967259;28;20245;-67
2022/01/31 06:01:16;;;;;;;8.82;3.83;;;;;;;-146.41;100.00;57768.22;4965978;28;20059;-68
2022/01/31 06:03:44;;;;;;;11.52;3.40;;;;;;;-146.41;100.00;57768.22;4969925;28;20043;-68
2022/01/31 06:06:15;;;;;;;11.20;3.45;;;;;;;-146.41;100.00;57768.22;4966365;28;20050;-66
2022/01/31 06:08:45;;;;;;;8.10;2.70;;;;;;;-146.41;100.00;57768.22;4968402;28;20137;-67
2022/01/31 06:11:15;;;;;;;12.05;3.92;;;;;;;-146.41;100.00;57768.22;4969696;28;20077;-68
2022/01/31 06:13:45;;;;;;;10.68;3.60;;;;;;;-146.41;100.00;57768.22;4968917;28;20562;-68
2022/01/31 06:16:15;;;;;;;13.25;3.55;;;;;;;-146.41;100.00;57768.22;4969006;28;20422;-68
2022/01/31 06:18:46;;;;;;;11.07;2.63;;;;;;;-146.41;100.00;57768.22;4967346;28;20149;-68
2022/01/31 06:21:16;;;;;;;8.55;2.45;;;;;;;-146.41;100.00;57768.22;4951484;28;20162;-67
2022/01/31 06:23:44;;;;;;;6.90;2.70;;;;;;;-146.41;100.00;57768.22;4966094;28;20047;-68
2022/01/31 06:26:13;;;;;;;9.65;3.20;;;;;;;-146.41;100.00;57768.22;4968369;28;20053;-68
2022/01/31 06:28:42;;;;;;;7.70;2.83;;;;;;;-146.41;100.00;57768.22;4968254;28;20511;-67
2022/01/31 06:31:10;;;;;;;8.50;2.88;;;;;;;-146.41;100.00;57768.22;4966193;28;20150;-68
2022/01/31 06:33:39;;;;;;;12.60;2.47;;;;;;;-146.41;100.00;57768.22;4967918;28;20053;-68
2022/01/31 06:36:08;;;;;;;8.90;2.63;;;;;;;-146.41;100.00;57768.22;4967854;28;20502;-66
2022/01/31 06:38:38;;;;;;;8.82;2.53;;;;;;;-146.41;100.00;57768.22;4966723;28;20141;-68
2022/01/31 06:41:07;;;;;;;8.40;2.78;;;;;;;-146.41;100.00;57768.22;4970486;28;20137;-68
2022/01/31 06:43:36;;;;;;;6.90;2.20;;;;;;;-146.41;100.00;57768.22;4970408;28;20134;-67
2022/01/31 06:46:04;;;;;;;6.68;2.88;;;;;;;-146.41;100.00;57768.22;4969100;28;20046;-68
2022/01/31 06:48:33;;;;;;;5.90;2.33;;;;;;;-146.41;100.00;57768.22;4972030;28;20165;-68
2022/01/31 06:51:02;;;;;;;5.40;2.58;;;;;;;-146.41;100.00;57768.22;4972253;28;20491;-67
2022/01/31 06:53:30;;;;;;;6.63;2.55;;;;;;;-146.41;100.00;57768.22;4970343;28;20069;-68
2022/01/31 06:55:59;;;;;;;7.03;3.15;;;;;;;-146.41;100.00;57768.22;4970084;28;20585;-68
2022/01/31 06:58:28;;;;;;;6.20;2.33;;;;;;;-146.41;100.00;57768.22;4969037;28;20477;-68
2022/01/31 07:00:58;;;;;;;7.78;2.67;;;;;;;-146.41;100.00;57768.22;4965476;28;20278;-68
2022/01/31 07:03:27;;;;;;;6.88;2.30;;;;;;;-146.41;100.00;57768.22;4967621;28;20049;-66
2022/01/31 07:05:55;;;;;;;11.35;2.75;;;;;;;-146.41;100.00;57768.22;4967889;28;20081;-67
2022/01/31 07:08:24;;;;;;;7.68;2.53;;;;;;;-146.41;100.00;57768.22;4966504;28;20050;-66
2022/01/31 07:10:53;;;;;;;9.20;2.83;;;;;;;-146.41;100.00;57768.22;4966338;28;20074;-68
2022/01/31 07:15:59;;;;;;;8.15;2.95;;;;;;;-146.41;100.00;57768.22;4968347;28;20065;-68
2022/01/31 07:18:28;;;;;;;7.25;3.00;;;;;;;-146.41;100.00;57768.22;4966010;28;20057;-68
2022/01/31 07:20:56;;;;;;;10.13;2.80;;;;;;;-146.41;100.00;57768.22;4970044;28;20085;-67
2022/01/31 07:23:50;;;;;;;12.68;3.70;;;;;;;-146.41;100.00;57768.22;4968020;28;20114;-67
2022/01/31 07:26:17;;;;;;;5.60;2.42;;;;;;;-146.41;100.00;57768.22;4968093;28;20138;-68
2022/01/31 07:28:46;;;;;;;7.32;3.00;;;;;;;-146.41;100.00;57768.22;4970028;28;20109;-67
2022/01/31 07:31:15;;;;;;;7.78;2.50;;;;;;;-146.41;100.00;57768.22;4968338;28;20142;-68
2022/01/31 07:33:43;;;;;;;7.70;2.72;;;;;;;-146.41;100.00;57768.22;4966076;28;20050;-68
2022/01/31 07:36:12;;;;;;;6.82;2.75;;;;;;;-146.41;100.00;57768.22;4968246;28;20055;-66
2022/01/31 07:38:42;;;;;;;8.95;3.05;;;;;;;-146.41;100.00;57768.22;4968224;28;20047;-68
2022/01/31 07:41:14;;;;;;;9.68;2.63;;;;;;;-146.41;100.00;57768.22;4945140;28;20502;-66
2022/01/31 07:43:46;;;;;;;8.20;3.00;;;;;;;-146.41;100.00;57768.22;4967219;28;20105;-67
2022/01/31 07:46:15;;;;;;;7.80;2.75;;;;;;;-146.41;100.00;57768.22;4966141;28;20117;-68
2022/01/31 07:48:44;;;;;;;8.32;2.58;;;;;;;-146.41;100.00;57768.22;4968716;28;20455;-66
2022/01/31 07:51:12;;;;;;;9.63;3.08;;;;;;;-146.41;100.00;57768.22;4968391;28;20057;-68
2022/01/31 07:53:41;;;;;;;10.20;2.67;;;;;;;-146.41;100.00;57768.22;4969487;28;20057;-68
2022/01/31 07:56:10;;;;;;;8.95;2.60;;;;;;;-146.41;100.00;57768.22;4964188;28;20073;-67
2022/01/31 07:58:39;;;;;;;9.52;2.33;;;;;;;-146.41;100.00;57768.22;4939762;28;20152;-68
2022/01/31 08:01:08;;;;;;;7.93;2.72;;;;;;;-146.41;100.00;57768.22;4967267;28;20165;-68
2022/01/31 08:03:37;;;;;;;6.78;2.33;;;;;;;-146.41;100.00;57768.22;4965600;28;20377;-68
2022/01/31 08:06:06;;;;;;;8.43;2.30;;;;;;;-146.41;100.00;57768.22;4968796;28;20051;-68
2022/01/31 08:08:35;;;;;;;7.93;2.03;;;;;;;-146.41;100.00;57768.22;4965366;28;20154;-68
2022/01/31 08:11:04;;;;;;;10.63;2.08;;;;;;;-146.41;100.00;57768.22;4964773;28;20102;-68
2022/01/31 08:13:34;;;;;;;7.20;1.83;;;;;;;-146.41;100.00;57768.22;4967129;28;20491;-68
2022/01/31 08:18:46;;;;;;;7.72;2.03;;;;;;;-146.41;100.00;57768.22;4970679;28;20426;-68
2022/01/31 08:21:15;;;;;;;8.60;2.08;;;;;;;-146.41;100.00;57768.22;4968641;28;20087;-68
2022/01/31 08:23:44;;;;;;;9.13;2.20;;;;;;;-146.41;100.00;57768.22;4972223;28;20149;-66
2022/01/31 08:26:16;;;;;;;8.68;2.60;;;;;;;-146.41;100.00;57768.22;4969701;28;20110;-67
2022/01/31 08:28:58;;;;;;;9.95;2.67;;;;;;;-146.41;100.00;57768.22;4969898;28;20127;-67
2022/01/31 08:31:35;;;;;;;8.32;2.45;;;;;;;-146.41;100.00;57768.22;4969164;28;20158;-68
2022/01/31 08:36:45;;;;;;;6.53;2.03;;;;;;;-146.41;100.00;57768.22;4968468;28;20058;-67
2022/01/31 08:39:20;;;;;;;8.65;2.15;;;;;;;-146.41;100.00;57768.22;4971667;28;20140;-68
2022/01/31 08:41:51;;;;;;;8.25;2.03;;;;;;;-146.41;100.00;57768.22;4969419;28;20057;-68
2022/01/31 08:44:22;;;;;;;4.93;1.70;;;;;;;-146.41;100.00;57768.22;4971048;28;20457;-68
2022/01/31 08:46:53;;;;;;;9.02;2.38;;;;;;;-146.41;100.00;57768.22;4977277;28;20062;-67
2022/01/31 08:49:22;;;;;;;7.15;1.77;;;;;;;-146.41;100.00;57768.22;4975412;28;20534;-68
2022/01/31 08:51:51;;;;;;;6.15;2.00;;;;;;;-146.41;100.00;57768.22;4972598;28;20479;-67
2022/01/31 08:54:20;;;;;;;8.23;1.90;;;;;;;-146.41;100.00;57768.22;4973757;28;20476;-67
2022/01/31 08:56:49;;;;;;;4.50;1.85;;;;;;;-146.41;100.00;57768.22;4973195;28;20153;-67
2022/01/31 08:59:22;;;;;;;9.50;2.30;;;;;;;-146.41;100.00;57768.22;4976858;28;20083;-67
2022/01/31 09:02:06;;;;;;;11.13;2.78;;;;;;;-146.41;100.00;57768.22;4969327;28;20056;-67
2022/01/31 09:04:47;;;;;;;6.65;1.92;;;;;;;-146.41;100.00;57768.22;4970239;28;20062;-67
2022/01/31 09:07:19;;;;;;;6.85;1.83;;;;;;;-146.41;100.00;57768.22;4971551;28;20097;-67
2022/01/31 09:09:53;;;;;;;11.23;3.28;;;;;;;-146.41;100.00;57768.22;4968521;28;20047;-68
2022/01/31 09:12:26;;;;;;;12.80;3.08;;;;;;;-146.41;100.00;57768.22;4967590;28;20471;-68
2022/01/31 09:14:55;;;;;;;11.52;2.45;;;;;;;-146.41;100.00;57768.22;4966802;28;20364;-67
2022/01/31 09:17:23;;;;;;;11.90;2.60;;;;;;;-146.41;100.00;57768.22;4970515;28;20055;-68
2022/01/31 09:19:51;;;;;;;13.55;4.53;;;;;;;-146.41;100.00;57768.22;4970044;28;20265;-66
2022/01/31 09:22:19;;;;;;;11.52;2.83;;;;;;;-146.41;100.00;57768.22;4969562;28;20150;-67
2022/01/31 09:24:50;;;;;;;9.25;2.75;;;;;;;-146.41;100.00;57768.22;4968565;28;20055;-67
2022/01/31 09:27:18;;;;;;;7.22;2.35;;;;;;;-146.41;100.00;57768.22;4967368;28;20101;-68
2022/01/31 09:29:47;;;;;;;9.15;2.75;;;;;;;-146.41;100.00;57768.22;4965508;28;20055;-68
2022/01/31 09:32:20;;;;;;;11.05;2.67;;;;;;;-146.41;100.00;57768.22;4967090;28;20399;-67
2022/01/31 09:34:48;;;;;;;9.43;3.13;;;;;;;-146.41;100.00;57768.22;4966602;28;20085;-68
2022/01/31 09:37:19;;;;;;;9.77;2.72;;;;;;;-146.41;100.00;57768.22;4968763;28;20129;-68
2022/01/31 09:39:48;;;;;;;9.90;2.83;;;;;;;-146.41;100.00;57768.22;4968840;28;20042;-66
2022/01/31 09:42:27;;;;;;;8.73;2.40;;;;;;;-146.41;100.00;57768.22;4968563;28;20134;-67
2022/01/31 09:50:10;;;;;;;7.95;2.00;;;;;;;-146.41;100.00;57768.22;4964644;28;20084;-67
2022/01/31 09:52:39;;;;;;;12.63;2.33;;;;;;;-146.41;100.00;57768.22;4965274;28;20129;-67
2022/01/31 09:55:08;;;;;;;8.13;2.42;;;;;;;-146.41;100.00;57768.22;4965617;28;20051;-66
2022/01/31 09:57:37;;;;;;;12.13;3.47;;;;;;;-146.41;100.00;57768.22;4964843;28;20057;-68
2022/01/31 10:00:07;;;;;;;10.23;1.88;;;;;;;-146.41;100.00;57768.22;4964341;28;20092;-67
2022/01/31 10:02:35;;;;;;;8.35;1.80;;;;;;;-146.41;100.00;57768.22;4966955;28;20355;-68
2022/01/31 10:05:04;;;;;;;10.70;1.90;;;;;;;-146.41;100.00;57768.22;4963027;28;20050;-67
2022/01/31 10:07:46;;;;;;;9.00;1.83;;;;;;;-146.41;100.00;57768.22;4967346;28;20138;-65
2022/01/31 10:10:23;;;;;;;7.45;1.88;;;;;;;-146.41;100.00;57768.22;4966389;28;20142;-67
2022/01/31 10:18:10;;;;;;;6.93;1.55;;;;;;;-146.41;100.00;57768.22;4968596;28;20129;-67
2022/01/31 10:21:00;;;;;;;7.82;1.35;;;;;;;-146.41;100.00;57768.22;4966990;28;20054;-67
2022/01/31 10:23:41;;;;;;;8.60;1.40;;;;;;;-146.41;100.00;57768.22;4967904;28;20082;-68
2022/01/31 10:26:31;;;;;;;9.23;1.40;;;;;;;-146.41;100.00;57768.22;4966790;28;20085;-66
2022/01/31 10:29:16;;;;;;;8.57;1.35;;;;;;;-146.41;100.00;57768.22;4950800;28;20066;-67
2022/01/31 10:32:04;;;;;;;6.68;1.17;;;;;;;-146.41;100.00;57768.22;4967911;28;20145;-68
2022/01/31 10:34:54;;;;;;;5.93;1.30;;;;;;;-146.41;100.00;57768.22;4967036;28;20137;-68
2022/01/31 10:37:24;;;;;;;13.50;1.75;;;;;;;-146.41;100.00;57768.22;4968229;28;20528;-68
2022/01/31 10:54:11;;;;;;;8.13;1.23;;;;;;;-146.41;100.00;57768.22;4964739;28;20067;-66
2022/01/31 10:57:04;;;;;;;9.30;1.23;;;;;;;-146.41;100.00;57768.22;4968157;28;20058;-69
2022/01/31 10:59:41;;;;;;;4.13;0.85;;;;;;;-146.41;100.00;57768.22;4965576;28;20433;-68
2022/01/31 11:02:18;;;;;;;7.95;1.48;;;;;;;-146.41;100.00;57768.22;4966585;28;20447;-67
2022/01/31 11:04:51;;;;;;;11.25;1.10;;;;;;;-146.41;100.00;57768.22;4964434;28;20059;-67
2022/01/31 11:07:22;;;;;;;5.55;0.80;;;;;;;-146.41;100.00;57768.22;4967194;28;20449;-68
2022/01/31 11:09:53;;;;;;;7.63;0.90;;;;;;;-146.41;100.00;57768.22;4964087;28;20153;-68
2022/01/31 11:12:25;;;;;;;7.13;1.00;;;;;;;-146.41;100.00;57768.22;4963524;28;20065;-68
2022/01/31 11:14:56;;;;;;;2.20;0.73;;;;;;;-146.41;100.00;57768.22;4962353;28;20059;-67
2022/01/31 11:17:26;;;;;;;8.93;1.17;;;;;;;-146.41;100.00;57768.22;4968188;28;20305;-68
2022/01/31 11:19:57;;;;;;;4.70;0.90;;;;;;;-146.41;100.00;57768.22;4965346;28;20419;-67
2022/01/31 11:22:29;;;;;;;10.38;0.90;;;;;;;-146.41;100.00;57768.22;4967224;28;20132;-68
2022/01/31 11:25:20;;;;;;;10.25;1.10;;;;;;;-146.41;100.00;57768.22;4963429;28;20137;-67
2022/01/31 11:27:59;;;;;;;8.55;1.98;;;;;;;-146.41;100.00;57768.22;4963802;28;20113;-68
2022/01/31 11:30:28;;;;;;;9.55;2.17;;;;;;;-146.41;100.00;57768.22;4957090;28;20054;-68
2022/01/31 11:32:56;;;;;;;7.53;1.05;;;;;;;-146.41;100.00;57768.22;4968395;28;20042;-68
2022/01/31 11:35:25;;;;;;;6.90;0.75;;;;;;;-146.41;100.00;57768.22;4963783;28;20054;-67
2022/01/31 11:37:54;;;;;;;7.05;0.80;;;;;;;-146.41;100.00;57768.22;4966959;28;20141;-68
2022/01/31 11:40:23;;;;;;;7.88;1.40;;;;;;;-146.41;100.00;57768.22;4967353;28;20105;-68
2022/01/31 12:58:32;;;;;;;7.32;1.45;;;;;;;-146.41;100.00;57768.22;4967967;28;20098;-66
2022/01/31 13:01:11;;;;;;;9.68;0.82;;;;;;;-146.41;100.00;57768.22;4963442;28;20058;-66
2022/01/31 13:03:44;;;;;;;6.22;1.13;;;;;;;-146.41;100.00;57768.22;4967421;28;20109;-67
2022/01/31 13:06:40;;;;;;;7.05;0.82;;;;;;;-146.41;100.00;57768.22;4970634;28;20431;-66
2022/01/31 13:09:11;;;;;;;6.78;0.90;;;;;;;-146.41;100.00;57768.22;4967752;28;20082;-68
2022/01/31 13:11:41;;;;;;;9.65;1.00;;;;;;;-146.41;100.00;57768.22;4968481;28;20821;-67